createdAt,value
2018-04-18T00:02:27.126Z,72.70
2018-04-18T00:04:55.211Z,72.80
2018-04-18T00:07:23.250Z,72.70
2018-04-18T00:09:51.290Z,72.90
2018-04-18T00:12:19.370Z,73.00
2018-04-18T00:14:47.446Z,72.90
2018-04-18T00:17:15.526Z,73.10
2018-04-18T00:19:43.607Z,73.20
2018-04-18T00:22:11.661Z,73.10
2018-04-18T00:24:39.738Z,73.10
2018-04-18T00:27:07.816Z,73.30
2018-04-18T00:29:35.902Z,74.80
2018-04-18T00:32:04.721Z,75.80
2018-04-18T00:34:32.801Z,75.10
2018-04-18T00:37:00.874Z,74.80
2018-04-18T00:39:28.949Z,74.10
2018-04-18T00:41:57.765Z,74.20
2018-04-18T00:44:25.854Z,74.20
2018-04-18T00:46:53.895Z,74.10
2018-04-18T00:49:21.937Z,74.10
2018-04-18T00:51:50.022Z,74.00
2018-04-18T00:54:18.093Z,74.10
2018-04-18T00:56:46.163Z,74.00
2018-04-18T00:59:14.246Z,75.00
2018-04-18T01:01:43.086Z,74.80
2018-04-18T01:04:11.157Z,74.80
2018-04-18T01:06:39.230Z,74.20
2018-04-18T01:09:07.281Z,73.90
2018-04-18T01:11:35.391Z,74.20
2018-04-18T01:14:03.462Z,73.20
2018-04-18T01:16:31.530Z,73.70
2018-04-18T01:18:59.697Z,74.60
2018-04-18T01:21:27.778Z,74.90
2018-04-18T01:23:55.841Z,74.80
2018-04-18T01:26:23.918Z,75.00
2018-04-18T01:28:51.996Z,74.80
2018-04-18T01:31:20.065Z,75.10
2018-04-18T01:33:48.154Z,74.80
2018-04-18T01:36:16.231Z,74.90
2018-04-18T01:38:44.281Z,74.90
2018-04-18T01:41:12.371Z,74.60
2018-04-18T01:43:40.437Z,74.80
2018-04-18T01:46:08.511Z,75.00
2018-04-18T01:48:36.582Z,75.50
2018-04-18T01:51:04.630Z,75.40
2018-04-18T01:53:32.700Z,75.50
2018-04-18T01:56:00.765Z,75.90
2018-04-18T01:58:28.799Z,75.80
2018-04-18T02:00:57.641Z,75.70
2018-04-18T02:03:25.735Z,75.60
2018-04-18T02:05:53.807Z,75.80
2018-04-18T02:11:22.145Z,75.60
2018-04-18T02:13:50.194Z,75.60
2018-04-18T02:16:18.298Z,75.70
2018-04-18T02:18:46.371Z,75.80
2018-04-18T02:21:14.415Z,75.90
2018-04-18T02:23:42.478Z,76.10
2018-04-18T02:26:10.538Z,75.90
2018-04-18T02:28:38.589Z,76.10
2018-04-18T02:31:06.682Z,76.00
2018-04-18T02:33:34.751Z,76.40
2018-04-18T02:36:02.845Z,75.90
2018-04-18T02:38:30.891Z,76.00
2018-04-18T02:40:58.971Z,76.30
2018-04-18T02:43:27.025Z,76.10
2018-04-18T02:45:55.082Z,76.10
2018-04-18T02:48:23.174Z,76.60
2018-04-18T02:50:51.254Z,76.50
2018-04-18T02:53:19.325Z,76.50
2018-04-18T02:55:47.377Z,76.70
2018-04-18T02:58:15.443Z,76.80
2018-04-18T03:00:43.545Z,76.40
2018-04-18T03:03:11.599Z,76.40
2018-04-18T03:05:39.670Z,76.70
2018-04-18T03:08:07.747Z,76.00
2018-04-18T03:10:35.826Z,75.80
2018-04-18T03:13:03.897Z,75.80
2018-04-18T03:15:31.969Z,75.70
2018-04-18T03:18:00.049Z,75.90
2018-04-18T03:20:28.111Z,76.40
2018-04-18T03:22:56.185Z,76.40
2018-04-18T03:25:24.254Z,76.80
2018-04-18T03:27:52.302Z,77.10
2018-04-18T03:30:20.382Z,77.50
2018-04-18T03:32:48.475Z,77.10
2018-04-18T03:35:16.562Z,76.70
2018-04-18T03:37:44.618Z,76.60
2018-04-18T03:40:12.681Z,76.40
2018-04-18T03:42:40.749Z,76.80
2018-04-18T03:45:08.825Z,76.90
2018-04-18T03:47:36.897Z,77.20
2018-04-18T03:50:04.970Z,77.50
2018-04-18T03:52:33.070Z,77.40
2018-04-18T03:55:01.110Z,77.60
2018-04-18T03:57:29.168Z,77.20
2018-04-18T03:59:57.255Z,76.80
2018-04-18T04:02:25.350Z,76.90
2018-04-18T04:04:53.362Z,77.30
2018-04-18T04:07:21.441Z,77.50
2018-04-18T04:09:49.509Z,77.80
2018-04-18T04:12:17.554Z,78.20
2018-04-18T04:14:45.680Z,78.50
2018-04-18T04:17:25.531Z,78.40
2018-04-18T04:20:05.430Z,78.40
2018-04-18T04:22:45.358Z,78.80
2018-04-18T04:25:14.190Z,78.50
2018-04-18T04:27:43.031Z,79.00
2018-04-18T04:30:11.921Z,79.00
2018-04-18T04:32:39.973Z,79.00
2018-04-18T04:35:08.064Z,79.20
2018-04-18T04:37:36.122Z,78.60
2018-04-18T04:40:04.227Z,79.00
2018-04-18T04:42:32.299Z,79.10
2018-04-18T04:45:00.385Z,79.00
2018-04-18T04:47:28.404Z,78.90
2018-04-18T04:49:56.458Z,79.00
2018-04-18T04:52:24.511Z,78.90
2018-04-18T04:54:52.566Z,78.60
2018-04-18T04:57:20.600Z,78.60
2018-04-18T04:59:48.677Z,78.70
2018-04-18T05:02:16.749Z,78.70
2018-04-18T05:04:44.834Z,78.80
2018-04-18T05:09:46.345Z,78.70
2018-04-18T05:12:14.421Z,78.80
2018-04-18T05:14:43.255Z,79.20
2018-04-18T05:17:11.294Z,79.20
2018-04-18T05:19:45.146Z,79.40
2018-04-18T05:22:13.214Z,79.60
2018-04-18T05:24:42.017Z,79.50
2018-04-18T05:27:10.070Z,79.50
2018-04-18T05:29:38.109Z,79.40
2018-04-18T05:32:06.182Z,78.20
2018-04-18T05:34:34.270Z,78.60
2018-04-18T05:37:02.330Z,78.40
2018-04-18T05:39:30.435Z,78.60
2018-04-18T05:41:58.530Z,78.40
2018-04-18T05:44:26.595Z,78.40
2018-04-18T05:46:54.661Z,78.30
2018-04-18T05:49:22.757Z,78.30
2018-04-18T05:51:54.005Z,78.30
2018-04-18T05:54:22.069Z,78.40
2018-04-18T05:56:51.077Z,78.30
2018-04-18T05:59:19.153Z,78.50
2018-04-18T06:01:47.241Z,78.40
2018-04-18T06:04:16.078Z,78.50
2018-04-18T06:06:44.152Z,78.50
2018-04-18T06:09:14.222Z,78.60
2018-04-18T06:11:43.051Z,78.50
2018-04-18T06:14:11.117Z,78.40
2018-04-18T06:16:39.194Z,78.80
2018-04-18T06:19:09.426Z,78.80
2018-04-18T06:21:37.433Z,78.60
2018-04-18T06:24:05.499Z,77.90
2018-04-18T06:26:33.556Z,77.80
2018-04-18T06:29:03.728Z,76.90
2018-04-18T06:31:31.778Z,77.00
2018-04-18T06:34:07.802Z,77.40
2018-04-18T06:36:35.869Z,78.10
2018-04-18T06:39:03.954Z,76.60
2018-04-18T06:41:36.954Z,75.40
2018-04-18T06:44:05.020Z,75.40
2018-04-18T06:46:33.082Z,75.40
2018-04-18T06:49:01.150Z,75.30
2018-04-18T06:51:29.271Z,74.90
2018-04-18T06:53:57.338Z,74.40
2018-04-18T06:56:25.421Z,74.50
2018-04-18T06:58:53.521Z,74.80
2018-04-18T07:01:21.574Z,74.90
2018-04-18T07:03:49.610Z,75.00
2018-04-18T07:06:17.677Z,75.10
2018-04-18T07:08:45.733Z,76.00
2018-04-18T07:11:13.841Z,76.60
2018-04-18T07:13:41.853Z,75.90
2018-04-18T07:16:09.910Z,75.80
2018-04-18T07:18:37.992Z,75.90
2018-04-18T07:21:06.052Z,76.30
2018-04-18T07:23:34.106Z,75.90
2018-04-18T07:26:02.182Z,75.90
2018-04-18T07:28:30.269Z,76.10
2018-04-18T07:30:58.314Z,76.40
2018-04-18T07:33:27.139Z,75.90
2018-04-18T07:35:55.190Z,75.70
2018-04-18T07:38:23.234Z,75.00
2018-04-18T07:40:51.279Z,75.90
2018-04-18T07:43:20.286Z,74.50
2018-04-18T07:45:48.342Z,73.70
2018-04-18T07:48:16.409Z,73.40
2018-04-18T07:50:44.473Z,72.70
2018-04-18T07:53:12.622Z,70.40
2018-04-18T07:55:40.666Z,72.40
2018-04-18T07:58:08.725Z,72.70
2018-04-18T08:00:36.782Z,71.40
2018-04-18T08:03:04.858Z,71.00
2018-04-18T08:05:33.033Z,71.00
2018-04-18T08:08:01.097Z,70.90
2018-04-18T08:10:29.166Z,71.50
2018-04-18T08:12:57.263Z,71.30
2018-04-18T08:15:25.346Z,72.00
2018-04-18T08:17:53.407Z,71.70
2018-04-18T08:20:21.474Z,73.10
2018-04-18T08:22:49.542Z,74.10
2018-04-18T08:25:17.570Z,74.10
2018-04-18T08:27:57.557Z,74.70
2018-04-18T08:30:25.618Z,74.10
2018-04-18T08:32:53.697Z,75.20
2018-04-18T08:35:21.790Z,75.50
2018-04-18T08:37:49.835Z,73.70
2018-04-18T08:40:17.881Z,74.50
2018-04-18T08:42:45.989Z,76.00
2018-04-18T08:45:14.057Z,75.90
2018-04-18T08:47:42.139Z,74.50
2018-04-18T08:50:10.218Z,74.10
2018-04-18T08:52:38.266Z,74.90
2018-04-18T08:55:06.327Z,76.90
2018-04-18T08:57:42.102Z,75.50
2018-04-18T09:00:10.167Z,76.60
2018-04-18T09:02:38.213Z,77.00
2018-04-18T09:05:06.245Z,75.80
2018-04-18T09:07:35.076Z,77.00
2018-04-18T09:10:03.118Z,76.30
2018-04-18T09:12:31.210Z,75.70
2018-04-18T09:14:59.257Z,76.10
2018-04-18T09:17:28.094Z,75.20
2018-04-18T09:19:56.129Z,75.10
2018-04-18T09:22:24.953Z,72.90
2018-04-18T09:24:52.985Z,72.90
2018-04-18T09:27:21.814Z,73.80
2018-04-18T09:29:49.887Z,73.60
2018-04-18T09:32:17.933Z,73.70
2018-04-18T09:34:45.985Z,72.40
2018-04-18T09:37:14.029Z,71.40
2018-04-18T09:39:42.082Z,71.00
2018-04-18T09:42:10.124Z,71.30
2018-04-18T09:44:38.168Z,71.50
2018-04-18T09:47:07.238Z,69.10
2018-04-18T09:49:35.293Z,69.00
2018-04-18T09:52:03.342Z,66.90
2018-04-18T09:54:31.402Z,67.10
2018-04-18T09:56:59.454Z,66.80
2018-04-18T09:59:28.266Z,66.70
2018-04-18T10:02:11.950Z,66.70
2018-04-18T10:04:44.921Z,66.10
2018-04-18T10:07:12.990Z,64.00
2018-04-18T10:09:41.086Z,62.60
2018-04-18T10:12:09.153Z,63.30
2018-04-18T10:14:37.213Z,64.20
2018-04-18T10:17:05.257Z,61.80
2018-04-18T10:19:33.310Z,64.40
2018-04-18T10:22:02.341Z,63.20
2018-04-18T10:24:31.101Z,62.60
2018-04-18T10:26:59.155Z,62.60
2018-04-18T10:29:27.218Z,60.00
2018-04-18T10:31:55.254Z,61.70
2018-04-18T10:34:23.294Z,61.20
2018-04-18T10:36:51.351Z,60.40
2018-04-18T10:39:20.174Z,58.80
2018-04-18T10:41:48.222Z,58.80
2018-04-18T10:44:16.266Z,59.30
2018-04-18T10:46:44.346Z,57.60
2018-04-18T10:49:12.385Z,57.80
2018-04-18T10:51:40.441Z,57.50
2018-04-18T10:54:08.498Z,58.20
2018-04-18T10:56:36.537Z,57.90
2018-04-18T10:59:04.590Z,57.90
2018-04-18T11:01:32.634Z,55.30
2018-04-18T11:04:00.682Z,55.20
2018-04-18T11:06:28.738Z,54.30
2018-04-18T11:08:56.782Z,57.30
2018-04-18T11:11:24.831Z,53.80
2018-04-18T11:14:06.579Z,55.10
2018-04-18T11:16:34.621Z,54.90
2018-04-18T11:19:02.667Z,54.10
2018-04-18T11:21:30.715Z,52.10
2018-04-18T11:23:58.783Z,53.80
2018-04-18T11:26:26.826Z,53.50
2018-04-18T11:28:54.878Z,54.40
2018-04-18T11:31:22.971Z,55.00
2018-04-18T11:33:51.010Z,54.00
2018-04-18T11:36:19.073Z,53.30
2018-04-18T11:38:47.119Z,55.70
2018-04-18T11:41:15.149Z,54.00
2018-04-18T11:43:43.206Z,52.70
2018-04-18T11:46:11.249Z,51.90
2018-04-18T11:48:39.347Z,54.80
2018-04-18T11:51:07.426Z,52.90
2018-04-18T11:53:36.427Z,51.00
2018-04-18T11:56:04.446Z,51.10
2018-04-18T11:58:32.512Z,52.30
2018-04-18T12:01:00.561Z,51.70
2018-04-18T12:03:28.607Z,51.50
2018-04-18T12:05:56.677Z,54.40
2018-04-18T12:08:38.601Z,52.10
2018-04-18T12:11:06.658Z,47.00
2018-04-18T12:13:35.469Z,46.40
2018-04-18T12:16:03.506Z,46.40
2018-04-18T12:18:31.562Z,44.90
2018-04-18T12:20:59.603Z,45.00
2018-04-18T12:23:27.634Z,48.80
2018-04-18T12:26:02.554Z,48.20
2018-04-18T12:28:30.606Z,48.10
2018-04-18T12:30:58.647Z,42.80
2018-04-18T12:33:26.799Z,43.10
2018-04-18T12:36:04.681Z,41.40
2018-04-18T12:38:32.721Z,44.20
2018-04-18T12:41:00.771Z,44.80
2018-04-18T12:43:28.813Z,39.60
2018-04-18T12:45:57.649Z,34.10
2018-04-18T12:48:25.687Z,34.00
2018-04-18T12:50:53.750Z,35.30
2018-04-18T12:53:21.806Z,36.00
2018-04-18T12:55:49.841Z,37.60
2018-04-18T12:58:17.891Z,38.10
2018-04-18T13:00:45.958Z,41.90
2018-04-18T13:03:13.983Z,41.60
2018-04-18T13:05:42.022Z,41.30
2018-04-18T13:08:10.083Z,42.70
2018-04-18T13:10:38.123Z,42.70
2018-04-18T13:13:06.933Z,39.70
2018-04-18T13:15:34.980Z,39.70
2018-04-18T13:18:03.026Z,37.30
2018-04-18T13:20:31.067Z,38.60
2018-04-18T13:23:05.161Z,38.60
2018-04-18T13:25:33.208Z,36.30
2018-04-18T13:28:01.247Z,39.60
2018-04-18T13:30:29.384Z,36.50
2018-04-18T13:32:58.158Z,38.20
2018-04-18T13:35:27.327Z,38.20
2018-04-18T13:37:56.171Z,41.60
2018-04-18T13:40:24.981Z,37.50
2018-04-18T13:42:53.026Z,37.40
2018-04-18T13:45:21.078Z,39.10
2018-04-18T13:47:49.119Z,39.10
2018-04-18T13:50:17.953Z,38.40
2018-04-18T13:52:46.045Z,38.60
2018-04-18T13:55:14.042Z,38.00
2018-04-18T13:57:42.091Z,39.10
2018-04-18T14:00:10.144Z,39.40
2018-04-18T14:02:38.186Z,38.60
2018-04-18T14:05:06.250Z,38.50
2018-04-18T14:07:47.013Z,40.50
2018-04-18T14:10:15.002Z,40.50
2018-04-18T14:12:43.045Z,35.00
2018-04-18T14:15:11.108Z,38.90
2018-04-18T14:17:39.143Z,38.60
2018-04-18T14:20:07.178Z,41.60
2018-04-18T14:22:35.234Z,38.10
2018-04-18T14:25:03.270Z,37.70
2018-04-18T14:27:31.314Z,35.30
2018-04-18T14:29:59.369Z,39.30
2018-04-18T14:32:27.405Z,39.60
2018-04-18T14:34:55.473Z,38.40
2018-04-18T14:37:23.502Z,35.90
2018-04-18T14:39:51.538Z,36.30
2018-04-18T14:42:20.346Z,38.30
2018-04-18T14:44:53.299Z,38.20
2018-04-18T14:47:21.345Z,40.30
2018-04-18T14:49:49.391Z,38.20
2018-04-18T14:52:17.478Z,38.90
2018-04-18T14:54:45.518Z,37.80
2018-04-18T14:57:14.319Z,41.40
2018-04-18T14:59:42.379Z,41.40
2018-04-18T15:02:10.418Z,38.60
2018-04-18T15:04:38.459Z,37.30
2018-04-18T15:07:06.514Z,39.90
2018-04-18T15:09:34.549Z,39.50
2018-04-18T15:12:03.353Z,40.40
2018-04-18T15:14:31.402Z,40.40
2018-04-18T15:16:59.438Z,40.50
2018-04-18T15:19:27.481Z,37.40
2018-04-18T15:21:55.555Z,39.10
2018-04-18T15:24:23.609Z,33.60
2018-04-18T15:26:52.434Z,31.90
2018-04-18T15:29:20.493Z,31.70
2018-04-18T15:31:48.576Z,30.70
2018-04-18T15:34:24.546Z,32.10
2018-04-18T15:36:52.577Z,30.90
2018-04-18T15:39:20.621Z,33.00
2018-04-18T15:41:48.682Z,32.10
2018-04-18T15:44:16.735Z,31.90
2018-04-18T15:46:46.478Z,35.00
2018-04-18T15:49:14.529Z,35.00
2018-04-18T15:51:42.573Z,35.80
2018-04-18T15:54:10.619Z,36.30
2018-04-18T15:56:42.761Z,36.90
2018-04-18T15:59:10.802Z,37.60
2018-04-18T16:01:38.846Z,39.60
2018-04-18T16:04:06.904Z,37.10
2018-04-18T16:06:34.937Z,37.40
2018-04-18T16:09:02.991Z,39.60
2018-04-18T16:11:31.042Z,39.30
2018-04-18T16:13:59.078Z,40.40
2018-04-18T16:16:27.121Z,39.60
2018-04-18T16:18:55.178Z,39.30
2018-04-18T16:21:23.987Z,43.60
2018-04-18T16:23:52.030Z,43.60
2018-04-18T16:26:20.092Z,41.30
2018-04-18T16:28:48.133Z,41.20
2018-04-18T16:31:16.171Z,41.80
2018-04-18T16:33:44.223Z,39.80
2018-04-18T16:36:12.255Z,40.00
2018-04-18T16:38:43.346Z,40.80
2018-04-18T16:41:11.402Z,41.80
2018-04-18T16:43:39.449Z,40.80
2018-04-18T16:46:07.494Z,41.40
2018-04-18T16:48:36.309Z,37.00
2018-04-18T16:51:04.345Z,36.90
2018-04-18T16:53:32.387Z,34.30
2018-04-18T16:56:00.442Z,32.60
2018-04-18T16:58:28.487Z,30.40
2018-04-18T17:00:56.525Z,30.60
2018-04-18T17:03:24.573Z,29.70
2018-04-18T17:05:59.489Z,29.20
2018-04-18T17:08:27.537Z,28.60
2018-04-18T17:10:55.606Z,28.60
2018-04-18T17:13:23.652Z,28.10
2018-04-18T17:15:51.709Z,27.80
2018-04-18T17:18:19.770Z,28.00
2018-04-18T17:20:47.826Z,28.40
2018-04-18T17:23:15.874Z,28.10
2018-04-18T17:25:47.791Z,27.10
2018-04-18T17:28:15.854Z,28.00
2018-04-18T17:30:43.895Z,26.90
2018-04-18T17:33:11.941Z,27.20
2018-04-18T17:35:39.995Z,27.90
2018-04-18T17:38:08.046Z,28.50
2018-04-18T17:40:36.095Z,28.70
2018-04-18T17:43:04.160Z,26.30
2018-04-18T17:45:32.207Z,29.70
2018-04-18T17:48:00.261Z,29.40
2018-04-18T17:50:28.305Z,29.90
2018-04-18T17:52:56.338Z,30.20
2018-04-18T17:55:24.393Z,30.50
2018-04-18T17:57:52.450Z,31.30
2018-04-18T18:00:20.489Z,31.60
2018-04-18T18:02:48.532Z,32.80
2018-04-18T18:05:16.615Z,34.00
2018-04-18T18:07:44.649Z,35.70
2018-04-18T18:10:12.694Z,36.60
2018-04-18T18:12:40.750Z,37.20
2018-04-18T18:15:08.794Z,39.10
2018-04-18T18:17:42.851Z,40.80
2018-04-18T18:20:10.902Z,41.60
2018-04-18T18:22:38.945Z,44.00
2018-04-18T18:25:06.998Z,45.80
2018-04-18T18:27:36.038Z,47.60
2018-04-18T18:30:04.088Z,47.80
2018-04-18T18:32:32.162Z,49.00
2018-04-18T18:35:00.206Z,49.90
2018-04-18T18:37:28.269Z,50.00
2018-04-18T18:39:56.368Z,50.80
2018-04-18T18:42:24.410Z,52.40
2018-04-18T18:44:53.241Z,53.50
2018-04-18T18:47:21.305Z,53.50
2018-04-18T18:49:49.360Z,53.90
2018-04-18T18:52:17.409Z,54.50
2018-04-18T18:54:46.262Z,54.00
2018-04-18T18:57:14.306Z,54.00
2018-04-18T18:59:42.357Z,54.30
2018-04-18T19:02:10.413Z,54.50
2018-04-18T19:04:38.453Z,54.60
2018-04-18T19:07:06.516Z,55.60
2018-04-18T19:09:34.571Z,56.30
2018-04-18T19:12:02.593Z,56.70
2018-04-18T19:14:30.647Z,55.80
2018-04-18T19:16:58.714Z,55.20
2018-04-18T19:19:26.749Z,53.30
2018-04-18T19:21:54.813Z,53.10
2018-04-18T19:24:23.626Z,54.30
2018-04-18T19:26:51.694Z,54.30
2018-04-18T19:29:19.767Z,55.30
2018-04-18T19:31:47.819Z,55.90
2018-04-18T19:34:15.866Z,56.40
2018-04-18T19:36:43.934Z,56.50
2018-04-18T19:39:12.010Z,56.00
2018-04-18T19:41:40.046Z,55.90
2018-04-18T19:44:08.130Z,57.70
2018-04-18T19:46:36.199Z,57.40
2018-04-18T19:49:04.266Z,57.30
2018-04-18T19:51:32.301Z,57.40
2018-04-18T19:54:00.383Z,57.80
2018-04-18T19:56:28.418Z,58.00
2018-04-18T19:58:57.270Z,57.70
2018-04-18T20:01:25.321Z,57.60
2018-04-18T20:03:53.362Z,57.90
2018-04-18T20:06:21.398Z,57.70
2018-04-18T20:08:49.469Z,58.00
2018-04-18T20:11:17.510Z,58.80
2018-04-18T20:13:45.553Z,59.30
2018-04-18T20:16:26.235Z,60.10
2018-04-18T20:18:54.258Z,59.40
2018-04-18T20:21:22.298Z,60.00
2018-04-18T20:23:50.361Z,60.00
2018-04-18T20:26:18.437Z,60.00
2018-04-18T20:28:46.478Z,59.70
2018-04-18T20:31:14.576Z,60.40
2018-04-18T20:33:42.614Z,60.30
2018-04-18T20:36:10.651Z,60.80
2018-04-18T20:38:38.726Z,60.70
2018-04-18T20:41:06.782Z,61.10
2018-04-18T20:43:34.819Z,61.10
2018-04-18T20:46:02.886Z,61.40
2018-04-18T20:48:30.931Z,61.20
2018-04-18T20:50:59.015Z,61.50
2018-04-18T20:53:27.069Z,61.70
2018-04-18T20:55:55.122Z,61.80
2018-04-18T20:58:23.173Z,62.20
2018-04-18T21:00:51.352Z,62.20
2018-04-18T21:03:19.394Z,61.50
2018-04-18T21:05:47.460Z,62.10
2018-04-18T21:08:15.497Z,62.30
2018-04-18T21:10:43.942Z,62.10
2018-04-18T21:13:11.997Z,62.20
2018-04-18T21:15:40.065Z,62.20
2018-04-18T21:18:08.175Z,62.50
2018-04-18T21:20:36.286Z,61.70
2018-04-18T21:23:04.261Z,61.70
2018-04-18T21:25:32.312Z,61.80
2018-04-18T21:28:00.350Z,62.60
2018-04-18T21:30:28.401Z,62.60
2018-04-18T21:32:56.447Z,63.20
2018-04-18T21:35:25.285Z,62.30
2018-04-18T21:37:53.378Z,62.20
2018-04-18T21:40:21.419Z,61.30
2018-04-18T21:42:49.457Z,62.20
2018-04-18T21:45:17.517Z,62.00
2018-04-18T21:47:51.418Z,61.90
2018-04-18T21:50:19.469Z,61.90
2018-04-18T21:52:47.524Z,62.20
2018-04-18T21:55:15.561Z,61.90
2018-04-18T21:57:43.621Z,63.20
2018-04-18T22:00:12.442Z,63.20
2018-04-18T22:02:40.487Z,63.10
2018-04-18T22:05:08.538Z,63.40
2018-04-18T22:07:36.577Z,63.50
2018-04-18T22:10:04.618Z,63.70
2018-04-18T22:12:32.670Z,64.30
2018-04-18T22:15:01.517Z,63.90
2018-04-18T22:17:29.554Z,63.90
2018-04-18T22:19:57.597Z,64.20
2018-04-18T22:22:25.646Z,63.90
2018-04-18T22:24:53.682Z,64.40
2018-04-18T22:27:21.774Z,64.20
2018-04-18T22:29:49.819Z,64.20
2018-04-18T22:32:17.874Z,64.70
2018-04-18T22:34:45.933Z,65.10
2018-04-18T22:37:14.746Z,65.00
2018-04-18T22:39:42.819Z,64.90
2018-04-18T22:42:10.858Z,62.20
2018-04-18T22:44:38.914Z,64.60
2018-04-18T22:47:06.991Z,64.50
2018-04-18T22:49:35.042Z,63.90
2018-04-18T22:52:03.077Z,64.60
2018-04-18T22:54:31.126Z,65.00
2018-04-18T22:56:59.938Z,64.40
2018-04-18T22:59:27.982Z,64.40
2018-04-18T23:01:56.018Z,65.60
2018-04-18T23:04:24.082Z,64.80
2018-04-18T23:06:52.126Z,65.50
2018-04-18T23:09:20.169Z,65.10
2018-04-18T23:11:48.985Z,65.60
2018-04-18T23:14:17.019Z,65.40
2018-04-18T23:16:45.067Z,65.80
2018-04-18T23:19:13.123Z,66.90
2018-04-18T23:21:41.166Z,65.60
2018-04-18T23:24:09.280Z,63.90
2018-04-18T23:26:37.278Z,66.40
2018-04-18T23:29:05.314Z,65.70
2018-04-18T23:31:34.118Z,66.30
2018-04-18T23:34:02.169Z,66.20
2018-04-18T23:36:30.215Z,66.60
2018-04-18T23:38:58.262Z,65.80
2018-04-18T23:41:27.077Z,67.40
2018-04-18T23:43:55.117Z,67.30
2018-04-18T23:46:23.154Z,66.60
2018-04-18T23:48:51.211Z,66.40
2018-04-18T23:51:19.252Z,66.70
2018-04-18T23:53:47.303Z,67.10
2018-04-18T23:56:15.337Z,66.90
2018-04-18T23:58:44.193Z,67.10
